LFSTLFGA

Guest
Details From LFST - Entzheim
To LFGA - Houssen
Flight Number -
Tags generated
Created
Modified
Stats Distance 28 nm / 52 km
Max Altitude 1,000 ft / 305 m
Waypoints 3
Social Downloads 0
Likes 0
Share VATSIM

Download

Looking for another format? Having issues loading an existing format? Contact us
Advertisement - Login to hide

Notes

Basic altitude profile: - Ascent Rate: 2500ft/min - Ascent Speed: 250kts - Cruise Altitude: 35000ft - Cruise Speed: 420kts - Descent Rate: 1500ft/min - Descent Speed: 250kts Options: - Use NATs: yes - Use PACOTS: yes - Use low airways: yes - Use high airways: yes

Route

LFST STR LFGA

ID Type Via Altitude Latitude Longitude Leg Dist Tot Dist Heading (true) Name
O LFST APT - 0 ft / 0 m 48.53833˚ 7.62826˚ - 0 nm - Entzheim
STR VOR - 1,000 ft / 305 m 48.50539˚ 7.57197˚ 2 nm 2 nm 229° / 229° STRASBOURG ENTZHEIM VOR-DME
O LFGA APT - 0 ft / 0 m 48.10970˚ 7.35897˚ 25 nm 28 nm 200° / 200° Houssen

Altitude Profile

Advertisement - Login to hide

LFST

Details ICAO LFST (SXB)
Name Entzheim
Region France
Timezone Europe/Paris (UTC+2.0)
Stats Elevation 504 ft / 154 m (AMSL)
Location 48.538335° 7.628265°
Runways 1
Magnetic Variation 2.160° E

METAR

LFST 261530Z AUTO 32005KT 290V350 CAVOK 28/17 Q1018 TEMPO FEW050CB

Decode

TAF

TAF LFST 261100Z 2612/2712 33004KT CAVOK TEMPO 2612/2617 FEW050CB

Decode

Departure Runways

ID Width Length Bearing (true) Bearing (mag) Surface Threshold Offset Overrun Length
05 148 ft / 45 m 7,899 ft / 2,408 m 48.60° 46.44° Asphalt 0 ft / 0 m 860 ft / 262 m
23 148 ft / 45 m 7,899 ft / 2,408 m 228.62° 226.46° Asphalt 0 ft / 0 m 902 ft / 275 m

LFGA

Details ICAO LFGA (CMR)
Name Houssen
Region France
Timezone Europe/Paris (UTC+2.0)
Stats Elevation 627 ft / 191 m (AMSL)
Location 48.109701° 7.358965°
Runways 1
Magnetic Variation 2.093° E

METAR

LFGA 261530Z AUTO VRB02KT CAVOK 29/15 Q1018

Decode

TAF

Not found

Destination Runways

ID Width Length Bearing (true) Bearing (mag) Surface Threshold Offset Overrun Length
01 98 ft / 30 m 5,298 ft / 1,615 m 10.98° 8.89° Asphalt 689 ft / 210 m 0 ft / 0 m
19 98 ft / 30 m 5,298 ft / 1,615 m 190.98° 188.89° Asphalt 0 ft / 0 m 0 ft / 0 m

Approach Navaids

Runway Type Ident Frequency Range Bearing (true) Bearing (mag) Slope Elevation
19 Localiser HO 110.70 MHz 18 nm / 33 km 191.00° 188.90° - 627 ft / 191 m (AMSL)
19 Glidescope HO 110.70 MHz 10 nm / 19 km 190.98° 188.89° 3.80° 627 ft / 191 m (AMSL)

Popular Alternatives